sensor_id;sensor_type;location;lat;lon;timestamp;P1;durP1;ratioP1;P2;durP2;ratioP2
20784;SDS011;10552;45.818;12.896;2022-12-07T00:01:55;0.73;;;0.73;;
20784;SDS011;10552;45.818;12.896;2022-12-07T00:04:40;1.45;;;1.30;;
20784;SDS011;10552;45.818;12.896;2022-12-07T00:07:34;0.63;;;0.63;;
20784;SDS011;10552;45.818;12.896;2022-12-07T00:10:23;1.12;;;1.08;;
20784;SDS011;10552;45.818;12.896;2022-12-07T00:13:06;1.27;;;1.17;;
20784;SDS011;10552;45.818;12.896;2022-12-07T00:16:02;0.47;;;0.47;;
20784;SDS011;10552;45.818;12.896;2022-12-07T00:18:44;1.02;;;1.02;;
20784;SDS011;10552;45.818;12.896;2022-12-07T00:21:28;0.80;;;0.80;;
20784;SDS011;10552;45.818;12.896;2022-12-07T00:24:10;1.33;;;1.23;;
20784;SDS011;10552;45.818;12.896;2022-12-07T00:27:11;0.20;;;0.20;;
20784;SDS011;10552;45.818;12.896;2022-12-07T00:30:00;0.30;;;0.30;;
20784;SDS011;10552;45.818;12.896;2022-12-07T00:32:54;0.37;;;0.37;;
20784;SDS011;10552;45.818;12.896;2022-12-07T00:35:37;0.28;;;0.28;;
20784;SDS011;10552;45.818;12.896;2022-12-07T00:38:23;1.23;;;1.12;;
20784;SDS011;10552;45.818;12.896;2022-12-07T00:41:09;0.50;;;0.50;;
20784;SDS011;10552;45.818;12.896;2022-12-07T00:43:58;0.27;;;0.27;;
20784;SDS011;10552;45.818;12.896;2022-12-07T00:46:42;1.00;;;0.90;;
20784;SDS011;10552;45.818;12.896;2022-12-07T00:49:32;1.35;;;1.25;;
20784;SDS011;10552;45.818;12.896;2022-12-07T00:52:15;1.05;;;1.05;;
20784;SDS011;10552;45.818;12.896;2022-12-07T00:55:07;1.03;;;0.93;;
20784;SDS011;10552;45.818;12.896;2022-12-07T00:58:09;0.20;;;0.20;;
20784;SDS011;10552;45.818;12.896;2022-12-07T01:00:52;0.10;;;0.10;;
20784;SDS011;10552;45.818;12.896;2022-12-07T01:03:36;0.77;;;0.77;;
20784;SDS011;10552;45.818;12.896;2022-12-07T01:06:25;0.80;;;0.80;;
20784;SDS011;10552;45.818;12.896;2022-12-07T01:09:11;0.70;;;0.70;;
20784;SDS011;10552;45.818;12.896;2022-12-07T01:12:10;1.17;;;1.17;;
20784;SDS011;10552;45.818;12.896;2022-12-07T01:15:39;0.10;;;0.10;;
20784;SDS011;10552;45.818;12.896;2022-12-07T01:18:22;0.20;;;0.20;;
20784;SDS011;10552;45.818;12.896;2022-12-07T01:22:10;0.33;;;0.33;;
20784;SDS011;10552;45.818;12.896;2022-12-07T01:24:53;0.10;;;0.10;;
20784;SDS011;10552;45.818;12.896;2022-12-07T01:28:01;0.87;;;0.87;;
20784;SDS011;10552;45.818;12.896;2022-12-07T01:30:55;0.00;;;0.00;;
20784;SDS011;10552;45.818;12.896;2022-12-07T01:33:37;0.50;;;0.50;;
20784;SDS011;10552;45.818;12.896;2022-12-07T01:36:29;0.50;;;0.45;;
20784;SDS011;10552;45.818;12.896;2022-12-07T01:39:29;0.43;;;0.43;;
20784;SDS011;10552;45.818;12.896;2022-12-07T01:42:21;0.20;;;0.20;;
20784;SDS011;10552;45.818;12.896;2022-12-07T01:48:11;0.73;;;0.73;;
20784;SDS011;10552;45.818;12.896;2022-12-07T01:50:56;0.00;;;0.00;;
20784;SDS011;10552;45.818;12.896;2022-12-07T01:53:47;0.10;;;0.10;;
20784;SDS011;10552;45.818;12.896;2022-12-07T01:56:30;0.40;;;0.40;;
20784;SDS011;10552;45.818;12.896;2022-12-07T01:59:33;0.10;;;0.10;;
20784;SDS011;10552;45.818;12.896;2022-12-07T02:02:30;0.15;;;0.15;;
20784;SDS011;10552;45.818;12.896;2022-12-07T02:05:26;0.35;;;0.35;;
20784;SDS011;10552;45.818;12.896;2022-12-07T02:08:58;0.00;;;0.00;;
20784;SDS011;10552;45.818;12.896;2022-12-07T02:11:58;0.00;;;0.00;;
20784;SDS011;10552;45.818;12.896;2022-12-07T02:14:45;0.00;;;0.00;;
20784;SDS011;10552;45.818;12.896;2022-12-07T02:18:18;0.30;;;0.30;;
20784;SDS011;10552;45.818;12.896;2022-12-07T02:21:41;0.30;;;0.30;;
20784;SDS011;10552;45.818;12.896;2022-12-07T02:24:45;0.00;;;0.00;;
20784;SDS011;10552;45.818;12.896;2022-12-07T02:27:37;0.00;;;0.00;;
20784;SDS011;10552;45.818;12.896;2022-12-07T02:30:20;0.10;;;0.10;;
20784;SDS011;10552;45.818;12.896;2022-12-07T02:33:05;0.55;;;0.55;;
20784;SDS011;10552;45.818;12.896;2022-12-07T02:35:50;0.73;;;0.65;;
20784;SDS011;10552;45.818;12.896;2022-12-07T02:38:37;0.50;;;0.50;;
20784;SDS011;10552;45.818;12.896;2022-12-07T02:41:20;0.60;;;0.60;;
20784;SDS011;10552;45.818;12.896;2022-12-07T02:44:04;0.30;;;0.30;;
20784;SDS011;10552;45.818;12.896;2022-12-07T02:47:03;0.10;;;0.10;;
20784;SDS011;10552;45.818;12.896;2022-12-07T02:50:10;0.00;;;0.00;;
20784;SDS011;10552;45.818;12.896;2022-12-07T02:52:59;0.20;;;0.20;;
20784;SDS011;10552;45.818;12.896;2022-12-07T02:55:49;1.27;;;0.60;;
20784;SDS011;10552;45.818;12.896;2022-12-07T02:58:39;0.25;;;0.25;;
20784;SDS011;10552;45.818;12.896;2022-12-07T03:04:02;0.30;;;0.30;;
20784;SDS011;10552;45.818;12.896;2022-12-07T03:06:43;0.37;;;0.37;;
20784;SDS011;10552;45.818;12.896;2022-12-07T03:11:06;0.00;;;0.00;;
20784;SDS011;10552;45.818;12.896;2022-12-07T03:14:29;0.00;;;0.00;;
20784;SDS011;10552;45.818;12.896;2022-12-07T03:17:30;0.20;;;0.20;;
20784;SDS011;10552;45.818;12.896;2022-12-07T03:20:29;0.20;;;0.20;;
20784;SDS011;10552;45.818;12.896;2022-12-07T03:23:13;0.00;;;0.00;;
20784;SDS011;10552;45.818;12.896;2022-12-07T03:26:02;0.37;;;0.37;;
20784;SDS011;10552;45.818;12.896;2022-12-07T03:29:06;0.30;;;0.30;;
20784;SDS011;10552;45.818;12.896;2022-12-07T03:31:51;0.00;;;0.00;;
20784;SDS011;10552;45.818;12.896;2022-12-07T03:34:34;0.30;;;0.30;;
20784;SDS011;10552;45.818;12.896;2022-12-07T03:37:28;0.00;;;0.00;;
20784;SDS011;10552;45.818;12.896;2022-12-07T03:40:26;0.00;;;0.00;;
20784;SDS011;10552;45.818;12.896;2022-12-07T03:43:07;0.05;;;0.05;;
20784;SDS011;10552;45.818;12.896;2022-12-07T03:46:04;0.00;;;0.00;;
20784;SDS011;10552;45.818;12.896;2022-12-07T03:48:53;0.60;;;0.50;;
20784;SDS011;10552;45.818;12.896;2022-12-07T03:55:01;0.00;;;0.00;;
20784;SDS011;10552;45.818;12.896;2022-12-07T03:58:21;0.30;;;0.30;;
20784;SDS011;10552;45.818;12.896;2022-12-07T04:01:42;0.10;;;0.10;;
20784;SDS011;10552;45.818;12.896;2022-12-07T04:04:48;0.00;;;0.00;;
20784;SDS011;10552;45.818;12.896;2022-12-07T04:08:04;0.00;;;0.00;;
20784;SDS011;10552;45.818;12.896;2022-12-07T04:11:42;0.23;;;0.23;;
20784;SDS011;10552;45.818;12.896;2022-12-07T04:14:26;0.00;;;0.00;;
20784;SDS011;10552;45.818;12.896;2022-12-07T04:17:10;0.40;;;0.40;;
20784;SDS011;10552;45.818;12.896;2022-12-07T04:19:53;0.20;;;0.20;;
20784;SDS011;10552;45.818;12.896;2022-12-07T04:23:39;0.00;;;0.00;;
20784;SDS011;10552;45.818;12.896;2022-12-07T04:29:32;0.20;;;0.20;;
20784;SDS011;10552;45.818;12.896;2022-12-07T04:32:53;0.20;;;0.20;;
20784;SDS011;10552;45.818;12.896;2022-12-07T04:35:38;0.00;;;0.00;;
20784;SDS011;10552;45.818;12.896;2022-12-07T04:38:30;0.00;;;0.00;;
20784;SDS011;10552;45.818;12.896;2022-12-07T04:41:22;0.00;;;0.00;;
20784;SDS011;10552;45.818;12.896;2022-12-07T04:44:14;0.00;;;0.00;;
20784;SDS011;10552;45.818;12.896;2022-12-07T04:46:57;0.20;;;0.20;;
20784;SDS011;10552;45.818;12.896;2022-12-07T04:50:09;0.00;;;0.00;;
20784;SDS011;10552;45.818;12.896;2022-12-07T04:54:23;0.27;;;0.27;;
20784;SDS011;10552;45.818;12.896;2022-12-07T04:57:59;0.10;;;0.10;;
20784;SDS011;10552;45.818;12.896;2022-12-07T05:01:01;0.10;;;0.10;;
20784;SDS011;10552;45.818;12.896;2022-12-07T05:04:26;0.00;;;0.00;;
20784;SDS011;10552;45.818;12.896;2022-12-07T05:07:09;0.00;;;0.00;;
20784;SDS011;10552;45.818;12.896;2022-12-07T05:10:34;0.37;;;0.37;;
20784;SDS011;10552;45.818;12.896;2022-12-07T05:13:51;0.00;;;0.00;;
20784;SDS011;10552;45.818;12.896;2022-12-07T05:16:36;0.20;;;0.20;;
20784;SDS011;10552;45.818;12.896;2022-12-07T05:19:19;0.80;;;0.30;;
20784;SDS011;10552;45.818;12.896;2022-12-07T05:22:22;0.07;;;0.07;;
20784;SDS011;10552;45.818;12.896;2022-12-07T05:25:39;0.00;;;0.00;;
20784;SDS011;10552;45.818;12.896;2022-12-07T05:29:14;0.00;;;0.00;;
20784;SDS011;10552;45.818;12.896;2022-12-07T05:34:45;0.00;;;0.00;;
20784;SDS011;10552;45.818;12.896;2022-12-07T05:38:34;0.20;;;0.20;;
20784;SDS011;10552;45.818;12.896;2022-12-07T05:42:10;0.03;;;0.03;;
20784;SDS011;10552;45.818;12.896;2022-12-07T05:45:14;0.50;;;0.50;;
20784;SDS011;10552;45.818;12.896;2022-12-07T05:48:46;0.43;;;0.43;;
20784;SDS011;10552;45.818;12.896;2022-12-07T05:54:09;0.00;;;0.00;;
20784;SDS011;10552;45.818;12.896;2022-12-07T06:02:03;0.10;;;0.10;;
20784;SDS011;10552;45.818;12.896;2022-12-07T06:05:53;0.40;;;0.40;;
20784;SDS011;10552;45.818;12.896;2022-12-07T06:09:51;0.37;;;0.37;;
20784;SDS011;10552;45.818;12.896;2022-12-07T06:12:42;0.00;;;0.00;;
20784;SDS011;10552;45.818;12.896;2022-12-07T06:15:32;0.00;;;0.00;;
20784;SDS011;10552;45.818;12.896;2022-12-07T06:18:15;0.40;;;0.40;;
20784;SDS011;10552;45.818;12.896;2022-12-07T06:21:08;0.00;;;0.00;;
20784;SDS011;10552;45.818;12.896;2022-12-07T06:26:50;0.00;;;0.00;;
20784;SDS011;10552;45.818;12.896;2022-12-07T06:29:43;0.10;;;0.10;;
20784;SDS011;10552;45.818;12.896;2022-12-07T06:34:28;0.10;;;0.10;;
20784;SDS011;10552;45.818;12.896;2022-12-07T06:37:22;0.10;;;0.10;;
20784;SDS011;10552;45.818;12.896;2022-12-07T06:40:39;0.00;;;0.00;;
20784;SDS011;10552;45.818;12.896;2022-12-07T06:45:09;0.10;;;0.10;;
20784;SDS011;10552;45.818;12.896;2022-12-07T06:48:17;0.00;;;0.00;;
20784;SDS011;10552;45.818;12.896;2022-12-07T06:51:48;0.73;;;0.67;;
20784;SDS011;10552;45.818;12.896;2022-12-07T06:56:59;0.00;;;0.00;;
20784;SDS011;10552;45.818;12.896;2022-12-07T06:59:51;0.20;;;0.20;;
20784;SDS011;10552;45.818;12.896;2022-12-07T07:03:26;0.10;;;0.10;;
20784;SDS011;10552;45.818;12.896;2022-12-07T07:06:10;0.00;;;0.00;;
20784;SDS011;10552;45.818;12.896;2022-12-07T07:10:28;0.20;;;0.20;;
20784;SDS011;10552;45.818;12.896;2022-12-07T07:13:17;0.10;;;0.10;;
20784;SDS011;10552;45.818;12.896;2022-12-07T07:16:27;0.10;;;0.10;;
20784;SDS011;10552;45.818;12.896;2022-12-07T07:20:21;0.00;;;0.00;;
20784;SDS011;10552;45.818;12.896;2022-12-07T07:27:46;0.13;;;0.13;;
20784;SDS011;10552;45.818;12.896;2022-12-07T07:30:36;0.20;;;0.20;;
20784;SDS011;10552;45.818;12.896;2022-12-07T07:33:28;0.10;;;0.10;;
20784;SDS011;10552;45.818;12.896;2022-12-07T07:37:11;1.13;;;0.50;;
20784;SDS011;10552;45.818;12.896;2022-12-07T07:39:56;0.30;;;0.30;;
20784;SDS011;10552;45.818;12.896;2022-12-07T07:43:24;0.50;;;0.50;;
20784;SDS011;10552;45.818;12.896;2022-12-07T07:47:33;0.33;;;0.33;;
20784;SDS011;10552;45.818;12.896;2022-12-07T07:52:28;0.13;;;0.07;;
20784;SDS011;10552;45.818;12.896;2022-12-07T07:55:55;0.10;;;0.10;;
20784;SDS011;10552;45.818;12.896;2022-12-07T07:58:56;0.00;;;0.00;;
20784;SDS011;10552;45.818;12.896;2022-12-07T08:03:42;0.10;;;0.10;;
20784;SDS011;10552;45.818;12.896;2022-12-07T08:06:32;0.20;;;0.20;;
20784;SDS011;10552;45.818;12.896;2022-12-07T08:11:00;0.00;;;0.00;;
20784;SDS011;10552;45.818;12.896;2022-12-07T08:18:24;0.93;;;0.87;;
20784;SDS011;10552;45.818;12.896;2022-12-07T08:21:45;0.37;;;0.37;;
20784;SDS011;10552;45.818;12.896;2022-12-07T08:30:27;0.10;;;0.10;;
20784;SDS011;10552;45.818;12.896;2022-12-07T08:33:35;0.00;;;0.00;;
20784;SDS011;10552;45.818;12.896;2022-12-07T08:37:17;0.27;;;0.27;;
20784;SDS011;10552;45.818;12.896;2022-12-07T08:40:01;0.20;;;0.20;;
20784;SDS011;10552;45.818;12.896;2022-12-07T08:57:20;0.10;;;0.10;;
20784;SDS011;10552;45.818;12.896;2022-12-07T09:00:10;0.20;;;0.20;;
20784;SDS011;10552;45.818;12.896;2022-12-07T09:02:54;0.43;;;0.43;;
20784;SDS011;10552;45.818;12.896;2022-12-07T09:06:01;0.10;;;0.10;;
20784;SDS011;10552;45.818;12.896;2022-12-07T09:08:46;0.47;;;0.47;;
20784;SDS011;10552;45.818;12.896;2022-12-07T09:11:27;0.30;;;0.30;;
20784;SDS011;10552;45.818;12.896;2022-12-07T09:14:10;0.50;;;0.50;;
20784;SDS011;10552;45.818;12.896;2022-12-07T09:17:11;0.37;;;0.37;;
20784;SDS011;10552;45.818;12.896;2022-12-07T09:20:26;0.00;;;0.00;;
20784;SDS011;10552;45.818;12.896;2022-12-07T09:23:38;0.10;;;0.10;;
20784;SDS011;10552;45.818;12.896;2022-12-07T09:26:22;0.17;;;0.17;;
20784;SDS011;10552;45.818;12.896;2022-12-07T09:29:22;0.20;;;0.20;;
20784;SDS011;10552;45.818;12.896;2022-12-07T09:32:29;0.10;;;0.10;;
20784;SDS011;10552;45.818;12.896;2022-12-07T09:35:12;0.82;;;0.82;;
20784;SDS011;10552;45.818;12.896;2022-12-07T09:37:56;0.10;;;0.10;;
20784;SDS011;10552;45.818;12.896;2022-12-07T09:40:41;0.30;;;0.30;;
20784;SDS011;10552;45.818;12.896;2022-12-07T09:43:38;0.20;;;0.20;;
20784;SDS011;10552;45.818;12.896;2022-12-07T09:46:21;0.22;;;0.22;;
20784;SDS011;10552;45.818;12.896;2022-12-07T09:49:05;0.45;;;0.45;;
20784;SDS011;10552;45.818;12.896;2022-12-07T09:51:55;0.20;;;0.20;;
20784;SDS011;10552;45.818;12.896;2022-12-07T09:54:31;0.20;;;0.20;;
20784;SDS011;10552;45.818;12.896;2022-12-07T09:57:15;1.10;;;0.70;;
20784;SDS011;10552;45.818;12.896;2022-12-07T10:00:00;0.40;;;0.40;;
20784;SDS011;10552;45.818;12.896;2022-12-07T10:02:44;0.33;;;0.27;;
20784;SDS011;10552;45.818;12.896;2022-12-07T10:05:31;0.70;;;0.60;;
20784;SDS011;10552;45.818;12.896;2022-12-07T10:08:24;0.80;;;0.80;;
20784;SDS011;10552;45.818;12.896;2022-12-07T10:11:07;0.30;;;0.30;;
20784;SDS011;10552;45.818;12.896;2022-12-07T10:14:10;0.37;;;0.37;;
20784;SDS011;10552;45.818;12.896;2022-12-07T10:16:48;0.30;;;0.30;;
20784;SDS011;10552;45.818;12.896;2022-12-07T10:19:32;0.33;;;0.33;;
20784;SDS011;10552;45.818;12.896;2022-12-07T10:22:17;0.30;;;0.30;;
20784;SDS011;10552;45.818;12.896;2022-12-07T10:25:07;0.20;;;0.20;;
20784;SDS011;10552;45.818;12.896;2022-12-07T10:27:43;0.30;;;0.30;;
20784;SDS011;10552;45.818;12.896;2022-12-07T10:30:26;0.30;;;0.30;;
20784;SDS011;10552;45.818;12.896;2022-12-07T10:36:19;0.30;;;0.30;;
20784;SDS011;10552;45.818;12.896;2022-12-07T10:39:11;0.10;;;0.10;;
20784;SDS011;10552;45.818;12.896;2022-12-07T10:41:56;0.30;;;0.30;;
20784;SDS011;10552;45.818;12.896;2022-12-07T10:44:39;0.00;;;0.00;;
20784;SDS011;10552;45.818;12.896;2022-12-07T10:47:25;0.60;;;0.60;;
20784;SDS011;10552;45.818;12.896;2022-12-07T10:50:10;2.50;;;0.50;;
20784;SDS011;10552;45.818;12.896;2022-12-07T10:52:57;0.20;;;0.20;;
20784;SDS011;10552;45.818;12.896;2022-12-07T10:58:31;0.20;;;0.20;;
20784;SDS011;10552;45.818;12.896;2022-12-07T11:01:23;0.30;;;0.20;;
20784;SDS011;10552;45.818;12.896;2022-12-07T11:04:18;0.23;;;0.23;;
20784;SDS011;10552;45.818;12.896;2022-12-07T11:10:07;0.20;;;0.20;;
20784;SDS011;10552;45.818;12.896;2022-12-07T11:12:57;0.10;;;0.10;;
20784;SDS011;10552;45.818;12.896;2022-12-07T11:15:59;0.10;;;0.10;;
20784;SDS011;10552;45.818;12.896;2022-12-07T11:18:28;0.20;;;0.20;;
20784;SDS011;10552;45.818;12.896;2022-12-07T11:21:23;0.20;;;0.20;;
20784;SDS011;10552;45.818;12.896;2022-12-07T11:27:11;0.10;;;0.10;;
20784;SDS011;10552;45.818;12.896;2022-12-07T11:30:02;0.30;;;0.30;;
20784;SDS011;10552;45.818;12.896;2022-12-07T11:41:32;0.23;;;0.23;;
20784;SDS011;10552;45.818;12.896;2022-12-07T11:44:26;0.10;;;0.10;;
20784;SDS011;10552;45.818;12.896;2022-12-07T11:47:36;0.20;;;0.20;;
20784;SDS011;10552;45.818;12.896;2022-12-07T11:50:31;0.40;;;0.30;;
20784;SDS011;10552;45.818;12.896;2022-12-07T11:53:17;0.50;;;0.50;;
20784;SDS011;10552;45.818;12.896;2022-12-07T11:56:00;0.20;;;0.20;;
20784;SDS011;10552;45.818;12.896;2022-12-07T11:58:54;0.10;;;0.10;;
20784;SDS011;10552;45.818;12.896;2022-12-07T12:01:55;0.10;;;0.10;;
20784;SDS011;10552;45.818;12.896;2022-12-07T12:04:47;0.70;;;0.70;;
20784;SDS011;10552;45.818;12.896;2022-12-07T12:07:31;0.13;;;0.13;;
20784;SDS011;10552;45.818;12.896;2022-12-07T12:13:10;0.30;;;0.30;;
20784;SDS011;10552;45.818;12.896;2022-12-07T12:15:59;0.50;;;0.50;;
20784;SDS011;10552;45.818;12.896;2022-12-07T12:18:53;0.20;;;0.20;;
20784;SDS011;10552;45.818;12.896;2022-12-07T12:21:42;0.10;;;0.10;;
20784;SDS011;10552;45.818;12.896;2022-12-07T12:24:28;0.10;;;0.10;;
20784;SDS011;10552;45.818;12.896;2022-12-07T12:27:04;0.10;;;0.10;;
20784;SDS011;10552;45.818;12.896;2022-12-07T12:29:50;0.20;;;0.20;;
20784;SDS011;10552;45.818;12.896;2022-12-07T12:32:36;0.10;;;0.10;;
20784;SDS011;10552;45.818;12.896;2022-12-07T12:35:27;0.30;;;0.30;;
20784;SDS011;10552;45.818;12.896;2022-12-07T12:40:56;0.10;;;0.10;;
20784;SDS011;10552;45.818;12.896;2022-12-07T12:43:44;0.20;;;0.20;;
20784;SDS011;10552;45.818;12.896;2022-12-07T12:46:36;0.20;;;0.20;;
20784;SDS011;10552;45.818;12.896;2022-12-07T12:49:36;0.50;;;0.50;;
20784;SDS011;10552;45.818;12.896;2022-12-07T12:58:28;0.30;;;0.30;;
20784;SDS011;10552;45.818;12.896;2022-12-07T13:04:01;0.30;;;0.30;;
20784;SDS011;10552;45.818;12.896;2022-12-07T13:06:50;0.20;;;0.20;;
20784;SDS011;10552;45.818;12.896;2022-12-07T13:09:34;0.20;;;0.20;;
20784;SDS011;10552;45.818;12.896;2022-12-07T13:12:26;0.17;;;0.17;;
20784;SDS011;10552;45.818;12.896;2022-12-07T13:15:30;0.27;;;0.27;;
20784;SDS011;10552;45.818;12.896;2022-12-07T13:17:55;0.20;;;0.20;;
20784;SDS011;10552;45.818;12.896;2022-12-07T13:20:56;0.10;;;0.10;;
20784;SDS011;10552;45.818;12.896;2022-12-07T13:23:52;0.10;;;0.10;;
20784;SDS011;10552;45.818;12.896;2022-12-07T13:26:43;0.20;;;0.20;;
20784;SDS011;10552;45.818;12.896;2022-12-07T13:29:36;0.10;;;0.10;;
20784;SDS011;10552;45.818;12.896;2022-12-07T13:32:27;0.60;;;0.60;;
20784;SDS011;10552;45.818;12.896;2022-12-07T13:38:02;0.30;;;0.30;;
20784;SDS011;10552;45.818;12.896;2022-12-07T13:40:58;0.17;;;0.17;;
20784;SDS011;10552;45.818;12.896;2022-12-07T13:43:29;0.10;;;0.10;;
20784;SDS011;10552;45.818;12.896;2022-12-07T13:46:25;0.10;;;0.10;;
20784;SDS011;10552;45.818;12.896;2022-12-07T13:49:15;0.20;;;0.20;;
20784;SDS011;10552;45.818;12.896;2022-12-07T13:52:15;0.10;;;0.10;;
20784;SDS011;10552;45.818;12.896;2022-12-07T13:55:28;0.17;;;0.17;;
20784;SDS011;10552;45.818;12.896;2022-12-07T13:58:17;0.10;;;0.10;;
20784;SDS011;10552;45.818;12.896;2022-12-07T14:00:49;0.10;;;0.10;;
20784;SDS011;10552;45.818;12.896;2022-12-07T14:03:33;0.30;;;0.30;;
20784;SDS011;10552;45.818;12.896;2022-12-07T14:06:46;0.10;;;0.10;;
20784;SDS011;10552;45.818;12.896;2022-12-07T14:09:25;0.30;;;0.30;;
20784;SDS011;10552;45.818;12.896;2022-12-07T14:12:24;0.20;;;0.20;;
20784;SDS011;10552;45.818;12.896;2022-12-07T14:15:15;0.17;;;0.17;;
20784;SDS011;10552;45.818;12.896;2022-12-07T14:17:52;0.20;;;0.20;;
20784;SDS011;10552;45.818;12.896;2022-12-07T14:20:37;0.20;;;0.20;;
20784;SDS011;10552;45.818;12.896;2022-12-07T14:23:22;0.13;;;0.13;;
20784;SDS011;10552;45.818;12.896;2022-12-07T14:26:11;0.47;;;0.47;;
20784;SDS011;10552;45.818;12.896;2022-12-07T14:28:51;0.50;;;0.50;;
20784;SDS011;10552;45.818;12.896;2022-12-07T14:31:34;0.20;;;0.20;;
20784;SDS011;10552;45.818;12.896;2022-12-07T14:34:27;0.75;;;0.75;;
20784;SDS011;10552;45.818;12.896;2022-12-07T14:37:17;0.47;;;0.47;;
20784;SDS011;10552;45.818;12.896;2022-12-07T14:40:03;0.30;;;0.30;;
20784;SDS011;10552;45.818;12.896;2022-12-07T14:42:49;0.20;;;0.20;;
20784;SDS011;10552;45.818;12.896;2022-12-07T14:45:31;0.23;;;0.23;;
20784;SDS011;10552;45.818;12.896;2022-12-07T14:48:20;0.33;;;0.33;;
20784;SDS011;10552;45.818;12.896;2022-12-07T14:51:04;0.27;;;0.27;;
20784;SDS011;10552;45.818;12.896;2022-12-07T14:53:50;0.20;;;0.20;;
20784;SDS011;10552;45.818;12.896;2022-12-07T14:56:44;0.10;;;0.10;;
20784;SDS011;10552;45.818;12.896;2022-12-07T14:59:28;0.10;;;0.10;;
20784;SDS011;10552;45.818;12.896;2022-12-07T15:02:12;0.20;;;0.20;;
20784;SDS011;10552;45.818;12.896;2022-12-07T15:05:04;0.20;;;0.20;;
20784;SDS011;10552;45.818;12.896;2022-12-07T15:07:49;0.20;;;0.20;;
20784;SDS011;10552;45.818;12.896;2022-12-07T15:10:34;0.30;;;0.30;;
20784;SDS011;10552;45.818;12.896;2022-12-07T15:13:19;0.10;;;0.10;;
20784;SDS011;10552;45.818;12.896;2022-12-07T15:16:19;0.10;;;0.10;;
20784;SDS011;10552;45.818;12.896;2022-12-07T15:19:02;0.20;;;0.20;;
20784;SDS011;10552;45.818;12.896;2022-12-07T15:22:00;0.10;;;0.10;;
20784;SDS011;10552;45.818;12.896;2022-12-07T15:25:04;0.20;;;0.20;;
20784;SDS011;10552;45.818;12.896;2022-12-07T15:27:50;0.30;;;0.30;;
20784;SDS011;10552;45.818;12.896;2022-12-07T15:30:51;0.63;;;0.63;;
20784;SDS011;10552;45.818;12.896;2022-12-07T15:33:34;0.40;;;0.40;;
20784;SDS011;10552;45.818;12.896;2022-12-07T15:36:19;0.20;;;0.20;;
20784;SDS011;10552;45.818;12.896;2022-12-07T15:39:01;0.43;;;0.37;;
20784;SDS011;10552;45.818;12.896;2022-12-07T15:41:45;0.40;;;0.40;;
20784;SDS011;10552;45.818;12.896;2022-12-07T15:44:37;0.17;;;0.17;;
20784;SDS011;10552;45.818;12.896;2022-12-07T15:47:45;0.10;;;0.10;;
20784;SDS011;10552;45.818;12.896;2022-12-07T15:50:28;0.20;;;0.20;;
20784;SDS011;10552;45.818;12.896;2022-12-07T15:53:20;0.20;;;0.20;;
20784;SDS011;10552;45.818;12.896;2022-12-07T15:56:05;0.50;;;0.50;;
20784;SDS011;10552;45.818;12.896;2022-12-07T15:58:49;0.23;;;0.23;;
20784;SDS011;10552;45.818;12.896;2022-12-07T16:01:32;0.23;;;0.23;;
20784;SDS011;10552;45.818;12.896;2022-12-07T16:04:15;0.43;;;0.43;;
20784;SDS011;10552;45.818;12.896;2022-12-07T16:07:01;0.30;;;0.30;;
20784;SDS011;10552;45.818;12.896;2022-12-07T16:09:51;0.40;;;0.40;;
20784;SDS011;10552;45.818;12.896;2022-12-07T16:12:42;0.33;;;0.33;;
20784;SDS011;10552;45.818;12.896;2022-12-07T16:15:27;0.20;;;0.20;;
20784;SDS011;10552;45.818;12.896;2022-12-07T16:18:28;0.30;;;0.30;;
20784;SDS011;10552;45.818;12.896;2022-12-07T16:21:11;0.70;;;0.70;;
20784;SDS011;10552;45.818;12.896;2022-12-07T16:24:33;0.73;;;0.40;;
20784;SDS011;10552;45.818;12.896;2022-12-07T16:27:17;0.20;;;0.20;;
20784;SDS011;10552;45.818;12.896;2022-12-07T16:30:18;0.30;;;0.30;;
20784;SDS011;10552;45.818;12.896;2022-12-07T16:33:02;0.80;;;0.80;;
20784;SDS011;10552;45.818;12.896;2022-12-07T16:35:47;0.63;;;0.63;;
20784;SDS011;10552;45.818;12.896;2022-12-07T16:38:42;0.30;;;0.30;;
20784;SDS011;10552;45.818;12.896;2022-12-07T16:41:25;2.60;;;1.67;;
20784;SDS011;10552;45.818;12.896;2022-12-07T16:44:17;2.83;;;2.63;;
20784;SDS011;10552;45.818;12.896;2022-12-07T16:47:23;0.83;;;0.83;;
20784;SDS011;10552;45.818;12.896;2022-12-07T16:50:07;3.17;;;2.03;;
20784;SDS011;10552;45.818;12.896;2022-12-07T16:52:52;1.77;;;1.67;;
20784;SDS011;10552;45.818;12.896;2022-12-07T16:55:36;2.90;;;2.07;;
20784;SDS011;10552;45.818;12.896;2022-12-07T16:58:07;4.47;;;2.30;;
20784;SDS011;10552;45.818;12.896;2022-12-07T17:01:08;0.47;;;0.47;;
20784;SDS011;10552;45.818;12.896;2022-12-07T17:03:51;0.63;;;0.63;;
20784;SDS011;10552;45.818;12.896;2022-12-07T17:06:34;2.03;;;1.90;;
20784;SDS011;10552;45.818;12.896;2022-12-07T17:09:17;3.53;;;2.07;;
20784;SDS011;10552;45.818;12.896;2022-12-07T17:12:01;0.87;;;0.87;;
20784;SDS011;10552;45.818;12.896;2022-12-07T17:15:00;0.90;;;0.90;;
20784;SDS011;10552;45.818;12.896;2022-12-07T17:17:56;0.93;;;0.93;;
20784;SDS011;10552;45.818;12.896;2022-12-07T17:21:04;1.03;;;0.97;;
20784;SDS011;10552;45.818;12.896;2022-12-07T17:24:09;1.10;;;1.10;;
20784;SDS011;10552;45.818;12.896;2022-12-07T17:26:58;1.23;;;1.13;;
20784;SDS011;10552;45.818;12.896;2022-12-07T17:29:49;0.60;;;0.60;;
20784;SDS011;10552;45.818;12.896;2022-12-07T17:33:07;1.60;;;1.00;;
20784;SDS011;10552;45.818;12.896;2022-12-07T17:35:57;1.47;;;1.37;;
20784;SDS011;10552;45.818;12.896;2022-12-07T17:38:40;1.20;;;1.20;;
20784;SDS011;10552;45.818;12.896;2022-12-07T17:41:41;0.87;;;0.87;;
20784;SDS011;10552;45.818;12.896;2022-12-07T17:44:31;2.00;;;1.60;;
20784;SDS011;10552;45.818;12.896;2022-12-07T17:47:15;2.03;;;1.27;;
20784;SDS011;10552;45.818;12.896;2022-12-07T17:50:09;0.87;;;0.87;;
20784;SDS011;10552;45.818;12.896;2022-12-07T17:53:00;1.13;;;1.00;;
20784;SDS011;10552;45.818;12.896;2022-12-07T17:55:58;1.83;;;1.70;;
20784;SDS011;10552;45.818;12.896;2022-12-07T17:58:40;2.00;;;1.30;;
20784;SDS011;10552;45.818;12.896;2022-12-07T18:01:33;1.20;;;1.20;;
20784;SDS011;10552;45.818;12.896;2022-12-07T18:04:21;0.90;;;0.90;;
20784;SDS011;10552;45.818;12.896;2022-12-07T18:07:52;1.07;;;1.07;;
20784;SDS011;10552;45.818;12.896;2022-12-07T18:11:21;1.30;;;1.23;;
20784;SDS011;10552;45.818;12.896;2022-12-07T18:14:04;1.40;;;1.30;;
20784;SDS011;10552;45.818;12.896;2022-12-07T18:17:12;1.53;;;1.43;;
20784;SDS011;10552;45.818;12.896;2022-12-07T18:20:21;1.07;;;1.07;;
20784;SDS011;10552;45.818;12.896;2022-12-07T18:23:15;1.10;;;1.10;;
20784;SDS011;10552;45.818;12.896;2022-12-07T18:26:16;0.53;;;0.53;;
20784;SDS011;10552;45.818;12.896;2022-12-07T18:29:09;0.93;;;0.93;;
20784;SDS011;10552;45.818;12.896;2022-12-07T18:31:54;1.27;;;1.20;;
20784;SDS011;10552;45.818;12.896;2022-12-07T18:34:50;0.67;;;0.67;;
20784;SDS011;10552;45.818;12.896;2022-12-07T18:37:23;1.30;;;1.17;;
20784;SDS011;10552;45.818;12.896;2022-12-07T18:40:19;1.50;;;1.40;;
20784;SDS011;10552;45.818;12.896;2022-12-07T18:43:03;2.30;;;1.10;;
20784;SDS011;10552;45.818;12.896;2022-12-07T18:46:14;0.50;;;0.50;;
20784;SDS011;10552;45.818;12.896;2022-12-07T18:48:46;1.43;;;1.43;;
20784;SDS011;10552;45.818;12.896;2022-12-07T18:51:33;0.93;;;0.90;;
20784;SDS011;10552;45.818;12.896;2022-12-07T18:54:24;1.55;;;1.27;;
20784;SDS011;10552;45.818;12.896;2022-12-07T18:57:16;0.57;;;0.57;;
20784;SDS011;10552;45.818;12.896;2022-12-07T19:00:00;1.10;;;1.05;;
20784;SDS011;10552;45.818;12.896;2022-12-07T19:03:18;0.40;;;0.40;;